Time;durP1;ratioP1;P1;durP2;ratioP2;P2;SDS_P1;SDS_P2;PMS_P1;PMS_P2;Temp;Humidity;BMP_temperature;BMP_pressure;BME280_temperature;BME280_humidity;BME280_pressure;Samples;Min_cycle;Max_cycle;Signal;HPM_P1;HPM_P2
2022/03/23 00:00:39;;;;;;;121.10;67.88;;;;;;;5.05;100.00;103080.38;4930518;28;20599;-76
2022/03/23 00:03:05;;;;;;;128.50;69.90;;;;;;;5.06;100.00;103087.47;4910439;28;20659;-75
2022/03/23 00:05:32;;;;;;;124.10;69.20;;;;;;;5.09;100.00;103092.53;4924698;28;20034;-76
2022/03/23 00:07:58;;;;;;;120.35;71.25;;;;;;;5.02;100.00;103087.69;4928069;28;22712;-75
2022/03/23 00:10:24;;;;;;;120.53;70.03;;;;;;;4.97;100.00;103084.53;4915369;28;20100;-75
2022/03/23 00:12:49;;;;;;;113.30;66.18;;;;;;;4.90;100.00;103088.66;4923302;28;20093;-75
2022/03/23 00:15:15;;;;;;;117.90;69.50;;;;;;;4.86;100.00;103091.69;4910773;28;20144;-75
2022/03/23 00:17:40;;;;;;;134.40;73.68;;;;;;;4.91;100.00;103085.00;4923335;28;20042;-75
2022/03/23 00:20:06;;;;;;;128.10;72.68;;;;;;;5.01;100.00;103085.13;4905631;28;20101;-75
2022/03/23 00:22:32;;;;;;;127.43;71.13;;;;;;;4.97;100.00;103089.03;4926543;28;20506;-75
2022/03/23 00:24:58;;;;;;;125.78;72.10;;;;;;;5.00;100.00;103089.63;4911591;28;20032;-75
2022/03/23 00:27:24;;;;;;;137.48;73.50;;;;;;;5.01;100.00;103085.97;4909885;28;20046;-75
2022/03/23 00:29:50;;;;;;;122.53;70.93;;;;;;;4.99;100.00;103089.75;4928011;28;20050;-75
2022/03/23 00:32:15;;;;;;;127.57;69.50;;;;;;;4.86;100.00;103092.53;4912493;28;20046;-75
2022/03/23 00:34:40;;;;;;;136.95;70.78;;;;;;;4.75;100.00;103093.38;4907586;28;25689;-75
2022/03/23 00:37:06;;;;;;;122.45;68.72;;;;;;;4.68;100.00;103099.31;4912026;28;20063;-75
2022/03/23 00:39:32;;;;;;;136.07;71.60;;;;;;;4.57;100.00;103092.13;4942897;28;20034;-74
2022/03/23 00:41:57;;;;;;;126.78;71.82;;;;;;;4.57;100.00;103096.63;4919787;28;20066;-75
2022/03/23 00:44:23;;;;;;;128.90;71.38;;;;;;;4.57;100.00;103081.47;4919808;28;20759;-75
2022/03/23 00:46:48;;;;;;;128.90;68.65;;;;;;;4.59;100.00;103092.84;4916843;28;20033;-74
2022/03/23 00:49:14;;;;;;;133.63;73.15;;;;;;;4.68;100.00;103094.81;4918314;28;20148;-75
2022/03/23 00:51:40;;;;;;;126.40;71.05;;;;;;;4.72;100.00;103090.09;4930838;28;20060;-74
2022/03/23 00:54:05;;;;;;;136.68;72.20;;;;;;;4.66;100.00;103085.22;4932539;28;20141;-75
2022/03/23 00:56:31;;;;;;;131.73;69.65;;;;;;;4.54;100.00;103087.88;4935840;28;20066;-74
2022/03/23 00:58:56;;;;;;;124.97;71.75;;;;;;;4.48;100.00;103087.50;4935087;28;20153;-75
2022/03/23 01:01:22;;;;;;;134.43;73.35;;;;;;;4.49;100.00;103082.06;4930874;28;20096;-74
2022/03/23 01:03:48;;;;;;;139.55;74.22;;;;;;;4.47;100.00;103089.31;4928367;28;20040;-74
2022/03/23 01:06:14;;;;;;;138.30;76.25;;;;;;;4.41;100.00;103084.44;4946584;28;20034;-75
2022/03/23 01:08:40;;;;;;;138.68;77.95;;;;;;;4.37;100.00;103088.31;4928460;28;20042;-75
2022/03/23 01:11:05;;;;;;;141.70;78.28;;;;;;;4.31;100.00;103083.44;4901563;28;20145;-75
2022/03/23 01:13:31;;;;;;;156.15;80.93;;;;;;;4.26;100.00;103081.13;4912148;28;20061;-75
2022/03/23 01:15:57;;;;;;;150.30;81.30;;;;;;;4.26;100.00;103088.28;4883257;28;20892;-75
2022/03/23 01:18:22;;;;;;;146.85;81.47;;;;;;;4.24;100.00;103087.53;4909424;28;20057;-75
2022/03/23 01:20:48;;;;;;;152.90;82.90;;;;;;;4.17;100.00;103078.31;4918705;28;20513;-74
2022/03/23 01:23:13;;;;;;;159.15;85.15;;;;;;;4.22;100.00;103081.50;4926089;28;20274;-74
2022/03/23 01:25:39;;;;;;;170.43;87.03;;;;;;;4.25;100.00;103081.25;4930267;28;20053;-75
2022/03/23 01:28:05;;;;;;;163.27;86.82;;;;;;;4.24;100.00;103077.72;4935776;28;21103;-75
2022/03/23 01:30:30;;;;;;;165.30;87.55;;;;;;;4.24;100.00;103080.38;4930375;28;20061;-74
2022/03/23 01:32:56;;;;;;;163.32;86.07;;;;;;;4.23;100.00;103085.84;4934448;28;20077;-75
2022/03/23 01:35:21;;;;;;;160.25;86.72;;;;;;;4.23;100.00;103072.50;4947328;28;20136;-75
2022/03/23 01:37:47;;;;;;;168.38;84.65;;;;;;;4.18;100.00;103077.38;4931468;28;20046;-75
2022/03/23 01:40:12;;;;;;;146.98;80.00;;;;;;;4.05;100.00;103067.59;4946987;28;20073;-75
2022/03/23 01:42:39;;;;;;;132.40;77.25;;;;;;;3.99;100.00;103070.72;4929372;28;20606;-75
2022/03/23 01:45:06;;;;;;;154.63;79.95;;;;;;;3.91;100.00;103072.28;4945914;28;20045;-74
2022/03/23 01:47:31;;;;;;;143.50;78.07;;;;;;;3.83;100.00;103072.84;4930755;28;20070;-75
2022/03/23 01:49:57;;;;;;;146.10;79.75;;;;;;;3.81;100.00;103072.09;4930023;28;20815;-75
2022/03/23 01:52:25;;;;;;;153.40;80.90;;;;;;;3.79;100.00;103069.56;4931130;28;20540;-76
2022/03/23 01:54:51;;;;;;;162.50;84.10;;;;;;;3.80;100.00;103065.09;4890782;28;22246;-75
2022/03/23 01:57:18;;;;;;;160.07;83.35;;;;;;;3.77;100.00;103066.16;4911866;28;20034;-75
2022/03/23 01:59:44;;;;;;;156.88;83.55;;;;;;;3.74;100.00;103061.03;4902622;28;20054;-75
2022/03/23 02:02:09;;;;;;;159.35;81.88;;;;;;;3.69;100.00;103063.22;4915868;28;20032;-75
2022/03/23 02:04:35;;;;;;;158.82;82.18;;;;;;;3.64;100.00;103060.03;4922425;28;20030;-75
2022/03/23 02:07:01;;;;;;;171.75;84.63;;;;;;;3.65;100.00;103055.53;4936758;28;23446;-75
2022/03/23 02:09:27;;;;;;;163.88;85.63;;;;;;;3.61;100.00;103048.72;4925665;28;20038;-75
2022/03/23 02:11:53;;;;;;;164.70;85.85;;;;;;;3.64;100.00;103057.34;4928763;28;20060;-75
2022/03/23 02:14:20;;;;;;;167.00;83.93;;;;;;;3.58;100.00;103045.34;4928342;28;20773;-75
2022/03/23 02:16:47;;;;;;;171.35;89.88;;;;;;;3.56;100.00;103051.75;4911175;28;24565;-75
2022/03/23 02:19:13;;;;;;;160.95;84.70;;;;;;;3.54;100.00;103043.84;4907828;28;20049;-75
2022/03/23 02:21:46;;;;;;;161.48;84.45;;;;;;;3.52;100.00;103051.13;4882063;28;20807;-75
2022/03/23 02:24:12;;;;;;;169.32;85.63;;;;;;;3.49;100.00;103047.84;4915388;28;20077;-75
2022/03/23 02:26:37;;;;;;;158.30;80.85;;;;;;;3.41;100.00;103045.75;4927284;28;20121;-75
2022/03/23 02:29:04;;;;;;;157.60;83.35;;;;;;;3.37;100.00;103051.38;4934209;28;20046;-75
2022/03/23 02:31:30;;;;;;;150.95;78.82;;;;;;;3.35;100.00;103054.16;4928993;28;20176;-75
2022/03/23 02:33:56;;;;;;;162.18;81.85;;;;;;;3.27;100.00;103046.75;4916394;28;20046;-75
2022/03/23 02:36:22;;;;;;;158.30;82.90;;;;;;;3.23;100.00;103052.38;4926747;28;20038;-75
2022/03/23 02:38:47;;;;;;;157.13;84.45;;;;;;;3.17;100.00;103048.34;4906976;28;20086;-75
2022/03/23 02:41:13;;;;;;;149.38;80.88;;;;;;;3.12;100.00;103047.81;4927747;28;20048;-75
2022/03/23 02:43:39;;;;;;;162.25;83.20;;;;;;;3.07;100.00;103044.66;4909078;28;20517;-75
2022/03/23 02:46:05;;;;;;;158.98;83.30;;;;;;;3.06;100.00;103049.13;4929656;28;20042;-75
2022/03/23 02:48:30;;;;;;;157.50;80.28;;;;;;;3.06;100.00;103051.78;4925107;28;20039;-75
2022/03/23 02:50:56;;;;;;;165.82;83.90;;;;;;;3.02;100.00;103049.44;4916221;28;20137;-75
2022/03/23 03:01:54;;;;;;;158.85;82.38;;;;;;;2.88;100.00;103055.78;4910472;28;20065;-75
2022/03/23 03:04:23;;;;;;;182.75;84.18;;;;;;;2.89;100.00;103062.78;4926593;28;20030;-75
2022/03/23 03:06:50;;;;;;;172.35;85.03;;;;;;;2.85;100.00;103056.81;4909701;28;20054;-75
2022/03/23 03:09:15;;;;;;;166.07;82.88;;;;;;;2.77;100.00;103045.00;4932567;28;20038;-75
2022/03/23 03:11:43;;;;;;;164.73;82.35;;;;;;;2.71;100.00;103048.13;4911551;28;20050;-75
2022/03/23 03:14:10;;;;;;;166.80;84.30;;;;;;;2.79;100.00;103051.94;4940512;28;20035;-75
2022/03/23 03:16:35;;;;;;;173.65;87.45;;;;;;;2.84;100.00;103048.94;4917485;28;20041;-74
2022/03/23 03:19:01;;;;;;;172.30;86.00;;;;;;;2.92;100.00;103056.41;4918753;28;20493;-75
2022/03/23 03:21:27;;;;;;;178.82;86.70;;;;;;;2.90;100.00;103047.66;4922868;28;20034;-75
2022/03/23 03:23:53;;;;;;;167.07;87.15;;;;;;;2.86;100.00;103053.19;4907436;28;20055;-75
2022/03/23 03:26:19;;;;;;;168.48;87.00;;;;;;;2.81;100.00;103062.50;4924508;28;20208;-75
2022/03/23 03:28:45;;;;;;;172.85;85.65;;;;;;;2.74;100.00;103048.75;4908196;28;20050;-75
2022/03/23 03:31:12;;;;;;;175.80;88.35;;;;;;;2.73;100.00;103056.81;4930805;28;20040;-75
2022/03/23 03:33:38;;;;;;;182.23;88.55;;;;;;;2.81;100.00;103060.66;4908807;28;20129;-74
2022/03/23 03:36:05;;;;;;;176.57;88.82;;;;;;;2.78;100.00;103052.06;4924381;28;20046;-73
2022/03/23 03:38:31;;;;;;;183.45;89.40;;;;;;;2.71;100.00;103056.09;4923122;28;20062;-76
2022/03/23 03:40:57;;;;;;;170.45;84.97;;;;;;;2.56;100.00;103053.56;4914688;28;20054;-76
2022/03/23 03:43:24;;;;;;;175.75;89.13;;;;;;;2.48;100.00;103061.19;4926464;28;20886;-76
2022/03/23 03:45:50;;;;;;;159.10;81.28;;;;;;;2.43;100.00;103060.66;4915478;28;20082;-75
2022/03/23 03:48:17;;;;;;;175.50;86.65;;;;;;;2.41;100.00;103057.25;4928180;28;20837;-75
2022/03/23 03:50:43;;;;;;;167.68;84.78;;;;;;;2.44;100.00;103057.03;4929309;28;20046;-76
2022/03/23 03:53:08;;;;;;;163.90;87.32;;;;;;;2.48;100.00;103065.66;4926300;28;20538;-76
2022/03/23 03:55:35;;;;;;;171.52;87.47;;;;;;;2.51;100.00;103063.63;4928946;28;20552;-76
2022/03/23 03:58:00;;;;;;;185.10;89.18;;;;;;;2.62;100.00;103062.91;4928210;28;20033;-76
2022/03/23 04:00:26;;;;;;;192.25;91.18;;;;;;;2.62;100.00;103065.56;4930514;28;20112;-76
2022/03/23 04:02:51;;;;;;;189.27;91.38;;;;;;;2.63;100.00;103060.16;4929427;28;20279;-76
2022/03/23 04:05:17;;;;;;;192.68;92.00;;;;;;;2.62;100.00;103054.91;4943272;28;20030;-76
2022/03/23 04:07:42;;;;;;;182.88;89.28;;;;;;;2.62;100.00;103061.09;4927937;28;20097;-76
2022/03/23 04:10:09;;;;;;;179.43;88.50;;;;;;;2.51;100.00;103068.97;4942176;28;21040;-75
2022/03/23 04:12:35;;;;;;;179.95;90.60;;;;;;;2.39;100.00;103070.66;4915409;28;20057;-75
2022/03/23 04:15:00;;;;;;;182.40;91.38;;;;;;;2.32;100.00;103071.19;4943757;28;20041;-76
2022/03/23 04:17:26;;;;;;;183.60;87.47;;;;;;;2.29;100.00;103069.59;4894158;28;20034;-76
2022/03/23 04:19:51;;;;;;;177.23;88.55;;;;;;;2.24;100.00;103070.84;4914598;28;20062;-75
2022/03/23 04:22:16;;;;;;;189.80;89.07;;;;;;;2.20;100.00;103075.50;4921096;28;20062;-76
2022/03/23 04:24:42;;;;;;;177.88;89.75;;;;;;;2.20;100.00;103077.31;4906052;28;20148;-75
2022/03/23 04:27:07;;;;;;;185.40;88.85;;;;;;;2.13;100.00;103083.03;4925065;28;20031;-76
2022/03/23 04:29:33;;;;;;;193.88;89.30;;;;;;;2.11;100.00;103082.31;4909987;28;20475;-75
2022/03/23 04:31:58;;;;;;;194.30;90.35;;;;;;;2.05;100.00;103077.41;4920168;28;20507;-76
2022/03/23 04:34:25;;;;;;;181.35;89.97;;;;;;;2.03;100.00;103076.63;4880760;28;20078;-75
2022/03/23 04:36:51;;;;;;;174.00;86.75;;;;;;;2.03;100.00;103078.44;4927678;28;20030;-75
2022/03/23 04:39:16;;;;;;;186.32;88.20;;;;;;;2.04;100.00;103078.38;4925272;28;20085;-75
2022/03/23 04:41:42;;;;;;;189.73;92.57;;;;;;;2.03;100.00;103073.97;4906505;28;22647;-75
2022/03/23 04:44:07;;;;;;;199.43;94.53;;;;;;;2.02;100.00;103071.44;4922829;28;20821;-73
2022/03/23 04:46:33;;;;;;;186.18;90.53;;;;;;;2.10;100.00;103080.59;4890787;28;20055;-73
2022/03/23 04:48:58;;;;;;;176.50;86.18;;;;;;;2.14;100.00;103079.47;4924236;28;20180;-76
2022/03/23 04:51:24;;;;;;;200.73;95.32;;;;;;;2.21;100.00;103076.38;4910572;28;20051;-76
2022/03/23 04:53:49;;;;;;;206.73;98.57;;;;;;;2.23;100.00;103080.63;4925137;28;20372;-75
2022/03/23 04:56:15;;;;;;;209.32;99.40;;;;;;;2.27;100.00;103081.28;4912902;28;23004;-75
2022/03/23 04:58:42;;;;;;;209.77;95.57;;;;;;;2.24;100.00;103081.47;4922985;28;20058;-76
2022/03/23 05:01:08;;;;;;;203.00;97.47;;;;;;;2.21;100.00;103081.69;4912237;28;20046;-73
2022/03/23 05:03:34;;;;;;;194.48;92.95;;;;;;;2.15;100.00;103078.50;4907973;28;20081;-76
2022/03/23 05:06:00;;;;;;;200.95;93.25;;;;;;;2.04;100.00;103082.84;4926118;28;20149;-75
2022/03/23 05:08:25;;;;;;;180.50;91.20;;;;;;;1.96;100.00;103078.00;4911448;28;22642;-75
2022/03/23 05:10:51;;;;;;;191.50;93.85;;;;;;;1.91;100.00;103086.28;4923836;28;20065;-75
2022/03/23 05:13:17;;;;;;;187.65;91.43;;;;;;;1.88;100.00;103081.16;4911972;28;20059;-76
2022/03/23 05:15:43;;;;;;;197.15;94.38;;;;;;;1.92;100.00;103076.50;4928403;28;20034;-75
2022/03/23 05:18:08;;;;;;;195.05;94.63;;;;;;;1.99;100.00;103075.16;4925047;28;20038;-75
2022/03/23 05:20:34;;;;;;;195.25;93.80;;;;;;;2.02;100.00;103082.91;4913922;28;20108;-75
2022/03/23 05:23:00;;;;;;;194.38;93.45;;;;;;;1.99;100.00;103084.94;4925502;28;20046;-75
2022/03/23 05:25:25;;;;;;;193.23;89.85;;;;;;;1.93;100.00;103078.22;4912464;28;20082;-75
2022/03/23 05:27:51;;;;;;;185.55;88.63;;;;;;;1.87;100.00;103081.28;4926789;28;20134;-75
2022/03/23 05:30:17;;;;;;;197.05;90.53;;;;;;;1.83;100.00;103087.75;4914144;28;20061;-75
2022/03/23 05:32:42;;;;;;;205.15;94.20;;;;;;;1.85;100.00;103086.69;4927498;28;20038;-75
2022/03/23 05:35:09;;;;;;;196.90;95.28;;;;;;;1.86;100.00;103084.88;4917251;28;21522;-75
2022/03/23 05:37:34;;;;;;;205.00;95.85;;;;;;;1.89;100.00;103082.03;4931505;28;20034;-73
2022/03/23 05:40:03;;;;;;;208.02;98.22;;;;;;;1.95;100.00;103081.63;4921107;28;20046;-75
2022/03/23 05:42:28;;;;;;;226.55;102.30;;;;;;;2.07;100.00;103086.13;4909457;28;22629;-75
2022/03/23 05:44:53;;;;;;;229.43;102.97;;;;;;;2.24;100.00;103092.13;4929590;28;20042;-75
2022/03/23 05:47:20;;;;;;;238.43;106.65;;;;;;;2.41;100.00;103094.50;4911600;28;20058;-75
2022/03/23 05:49:46;;;;;;;225.07;99.55;;;;;;;2.49;100.00;103093.97;4914261;28;20148;-75
2022/03/23 05:52:11;;;;;;;237.07;105.13;;;;;;;2.61;100.00;103098.47;4912025;28;20055;-75
2022/03/23 05:54:36;;;;;;;232.15;103.28;;;;;;;2.74;100.00;103091.34;4935398;28;20030;-75
2022/03/23 05:57:03;;;;;;;251.50;107.43;;;;;;;2.94;100.00;103103.22;4929111;28;20035;-74
2022/03/23 05:59:29;;;;;;;239.55;109.15;;;;;;;3.15;100.00;103100.03;4941711;28;20038;-74
2022/03/23 06:01:54;;;;;;;240.02;109.63;;;;;;;3.33;100.00;103104.03;4930875;28;20037;-74
2022/03/23 06:04:19;;;;;;;253.77;112.55;;;;;;;3.56;100.00;103099.72;4930889;28;20177;-74
2022/03/23 06:06:45;;;;;;;267.67;117.47;;;;;;;3.97;100.00;103098.50;4901465;28;20077;-74
2022/03/23 06:09:12;;;;;;;293.13;124.05;;;;;;;4.55;100.00;103105.59;4932614;28;20085;-74
2022/03/23 06:11:38;;;;;;;271.58;123.40;;;;;;;5.05;100.00;103107.09;4944017;28;20045;-74
2022/03/23 06:14:04;;;;;;;262.80;120.80;;;;;;;5.49;100.00;103095.53;4913167;28;20132;-74
2022/03/23 06:16:29;;;;;;;269.42;121.93;;;;;;;5.94;100.00;103100.81;4944907;28;20113;-74
2022/03/23 06:18:55;;;;;;;246.05;119.45;;;;;;;6.42;100.00;103106.56;4936558;28;20037;-74
2022/03/23 06:21:21;;;;;;;229.30;115.15;;;;;;;7.03;100.00;103107.59;4932478;28;20050;-74
2022/03/23 06:23:47;;;;;;;213.90;111.22;;;;;;;7.63;100.00;103103.13;4927345;28;20038;-74
2022/03/23 06:26:12;;;;;;;199.38;103.72;;;;;;;8.14;100.00;103110.09;4919284;28;20054;-75
2022/03/23 06:28:38;;;;;;;165.13;94.28;;;;;;;8.46;100.00;103114.34;4909556;28;20058;-74
2022/03/23 06:31:04;;;;;;;147.77;86.82;;;;;;;8.77;100.00;103123.91;4911283;28;20220;-74
2022/03/23 06:33:30;;;;;;;134.05;81.10;;;;;;;9.17;100.00;103127.34;4927921;28;20503;-75
2022/03/23 06:35:56;;;;;;;116.90;77.05;;;;;;;9.50;100.00;103120.50;4910037;28;20031;-75
2022/03/23 06:38:21;;;;;;;115.95;74.57;;;;;;;9.92;100.00;103125.34;4923841;28;20747;-75
2022/03/23 06:40:47;;;;;;;109.90;73.55;;;;;;;10.30;100.00;103128.78;4920452;28;20797;-75
2022/03/23 06:43:12;;;;;;;99.63;68.28;;;;;;;10.68;100.00;103135.66;4922090;28;20402;-75
2022/03/23 06:45:40;;;;;;;97.57;66.55;;;;;;;11.01;100.00;103136.69;4931829;28;20574;-76
2022/03/23 06:48:06;;;;;;;106.05;68.40;;;;;;;11.40;100.00;103137.06;4891672;28;20082;-75
2022/03/23 06:50:31;;;;;;;96.38;66.07;;;;;;;11.60;100.00;103132.25;4929976;28;20034;-76
2022/03/23 06:52:57;;;;;;;91.10;61.42;;;;;;;11.89;100.00;103131.00;4910286;28;20189;-75
2022/03/23 06:55:22;;;;;;;84.05;59.17;;;;;;;11.96;100.00;103134.72;4925711;28;20045;-75
2022/03/23 06:57:48;;;;;;;90.40;61.28;;;;;;;12.42;100.00;103137.78;4922423;28;20574;-76
2022/03/23 07:00:13;;;;;;;87.40;58.58;;;;;;;12.83;100.00;103148.59;4914789;28;20115;-76
2022/03/23 07:02:43;;;;;;;78.05;56.03;;;;;;;13.05;100.00;103145.16;4927026;28;20091;-76
2022/03/23 07:05:14;;;;;;;83.97;57.53;;;;;;;13.03;100.00;103149.06;4914545;28;20054;-76
2022/03/23 07:09:31;;;;;;;78.65;55.97;;;;;;;13.27;100.00;103149.03;4930550;28;20061;-76
2022/03/23 07:10:26;;;;;;;75.15;54.63;;;;;;;13.65;99.93;103140.22;4920629;28;20645;-76
2022/03/23 07:12:51;;;;;;;81.53;54.10;;;;;;;14.27;95.06;103149.13;4924616;28;20042;-76
2022/03/23 07:15:17;;;;;;;70.53;51.28;;;;;;;14.34;82.40;103151.97;4916308;28;20058;-75
2022/03/23 07:17:42;;;;;;;72.00;51.13;;;;;;;14.40;75.22;103144.97;4925268;28;20155;-75
2022/03/23 07:20:08;;;;;;;73.00;48.33;;;;;;;15.31;71.91;103152.06;4917265;28;23066;-75
2022/03/23 07:22:34;;;;;;;63.40;47.05;;;;;;;15.37;65.98;103153.97;4929674;28;20034;-75
2022/03/23 07:25:00;;;;;;;58.83;44.22;;;;;;;15.60;64.95;103155.75;4925778;28;20026;-75
2022/03/23 07:27:25;;;;;;;69.68;46.10;;;;;;;15.48;56.80;103153.53;4910437;28;20062;-75
2022/03/23 07:29:51;;;;;;;60.45;44.05;;;;;;;15.52;58.78;103160.25;4927485;28;20073;-75
2022/03/23 07:32:17;;;;;;;56.58;43.90;;;;;;;15.60;53.98;103158.47;4917860;28;20050;-75
2022/03/23 07:34:42;;;;;;;62.88;42.40;;;;;;;15.47;54.27;103159.97;4926511;28;20627;-75
2022/03/23 07:37:08;;;;;;;61.45;43.90;;;;;;;16.02;54.80;103157.75;4912355;28;20072;-75
2022/03/23 07:39:33;;;;;;;55.92;41.83;;;;;;;16.39;52.94;103159.38;4927181;28;20034;-75
2022/03/23 07:42:00;;;;;;;62.03;44.45;;;;;;;16.36;52.01;103159.75;4922757;28;20394;-74
2022/03/23 07:44:25;;;;;;;56.70;42.75;;;;;;;16.51;50.74;103159.69;4914751;28;20055;-74
2022/03/23 07:46:52;;;;;;;53.88;39.25;;;;;;;17.18;48.66;103166.47;4920926;28;20101;-74
2022/03/23 07:49:17;;;;;;;50.75;39.33;;;;;;;17.24;46.69;103165.69;4908218;28;20097;-74
2022/03/23 07:51:43;;;;;;;54.50;41.72;;;;;;;17.06;47.42;103165.34;4924476;28;20069;-74
2022/03/23 07:54:08;;;;;;;50.67;37.15;;;;;;;17.69;46.53;103174.28;4913269;28;20145;-74
2022/03/23 07:56:34;;;;;;;51.97;37.58;;;;;;;17.75;46.00;103172.59;4923165;28;20072;-74
2022/03/23 07:59:00;;;;;;;48.05;36.67;;;;;;;18.04;44.86;103169.59;4906944;28;20054;-74
2022/03/23 08:01:25;;;;;;;56.78;37.88;;;;;;;17.98;43.33;103175.03;4924117;28;20158;-74
2022/03/23 08:03:51;;;;;;;47.67;35.70;;;;;;;18.30;42.38;103174.25;4923833;28;20040;-73
2022/03/23 08:06:16;;;;;;;46.67;36.92;;;;;;;18.45;41.77;103171.31;4909891;28;20065;-73
2022/03/23 08:08:42;;;;;;;50.38;37.42;;;;;;;18.40;41.33;103179.31;4925117;28;20046;-75
2022/03/23 08:11:07;;;;;;;43.10;33.88;;;;;;;18.97;39.67;103171.53;4908538;28;20065;-74
2022/03/23 08:13:33;;;;;;;51.92;35.05;;;;;;;19.07;39.83;103174.69;4924977;28;20034;-74
2022/03/23 08:16:00;;;;;;;43.70;34.85;;;;;;;18.93;39.17;103181.22;4911183;28;20057;-75
2022/03/23 08:18:26;;;;;;;41.47;33.67;;;;;;;19.66;37.35;103179.16;4925339;28;20066;-74
2022/03/23 08:20:52;;;;;;;43.45;33.72;;;;;;;19.72;37.44;103178.25;4927441;28;20043;-75
2022/03/23 08:23:19;;;;;;;42.75;32.60;;;;;;;19.86;35.04;103176.31;4917636;28;20049;-75
2022/03/23 08:25:46;;;;;;;39.75;32.22;;;;;;;19.72;35.62;103182.91;4927126;28;20548;-74
2022/03/23 08:28:17;;;;;;;39.05;32.20;;;;;;;19.95;35.52;103172.25;4908817;28;20050;-75
2022/03/23 08:30:43;;;;;;;37.10;31.52;;;;;;;19.91;34.20;103178.41;4922438;28;20081;-75
2022/03/23 08:33:08;;;;;;;40.78;30.65;;;;;;;20.24;32.84;103178.19;4886141;28;20154;-73
2022/03/23 08:35:35;;;;;;;40.72;32.53;;;;;;;20.06;33.81;103178.94;4906149;28;20054;-73
2022/03/23 08:38:00;;;;;;;34.80;30.23;;;;;;;20.33;33.72;103173.28;4891262;28;20087;-73
2022/03/23 08:40:26;;;;;;;38.92;31.10;;;;;;;20.46;33.13;103181.38;4925063;28;20034;-73
2022/03/23 08:42:52;;;;;;;38.25;30.00;;;;;;;20.29;33.02;103183.84;4924493;28;20043;-73
2022/03/23 08:45:17;;;;;;;34.63;28.05;;;;;;;20.44;32.96;103186.25;4912228;28;20124;-73
2022/03/23 08:47:44;;;;;;;39.50;30.27;;;;;;;20.42;32.38;103182.88;4925583;28;20070;-73
2022/03/23 08:50:11;;;;;;;34.38;27.00;;;;;;;20.26;32.18;103182.38;4898488;28;20661;-73
2022/03/23 08:52:38;;;;;;;35.85;27.70;;;;;;;20.54;30.42;103189.38;4910479;28;20030;-73
2022/03/23 08:55:05;;;;;;;36.13;27.40;;;;;;;20.47;30.26;103174.88;4891340;28;20062;-73
2022/03/23 08:57:31;;;;;;;32.60;27.27;;;;;;;20.32;31.30;103186.13;4912577;28;20038;-73
2022/03/23 08:59:56;;;;;;;37.72;27.02;;;;;;;20.35;30.66;103187.56;4898233;28;20038;-73
2022/03/23 09:02:22;;;;;;;33.92;27.23;;;;;;;20.10;30.94;103190.28;4925839;28;22803;-73
2022/03/23 09:04:47;;;;;;;34.50;28.20;;;;;;;20.23;31.15;103185.56;4928681;28;20035;-73
2022/03/23 09:07:13;;;;;;;34.70;27.38;;;;;;;20.27;30.69;103181.31;4915659;28;20046;-73
2022/03/23 09:09:38;;;;;;;39.15;27.10;;;;;;;20.41;31.02;103187.53;4929830;28;20042;-73
2022/03/23 09:12:04;;;;;;;30.60;25.80;;;;;;;20.95;29.15;103182.47;4917383;28;20081;-73
2022/03/23 09:14:29;;;;;;;33.67;26.88;;;;;;;21.06;28.79;103183.63;4928177;28;20157;-73
2022/03/23 09:16:55;;;;;;;29.85;24.02;;;;;;;20.88;27.93;103187.16;4912215;28;20050;-73
2022/03/23 09:19:20;;;;;;;33.70;24.58;;;;;;;20.57;28.40;103186.19;4928944;28;20035;-73
2022/03/23 09:21:47;;;;;;;30.65;24.48;;;;;;;20.37;28.83;103188.22;4922865;28;20681;-73
2022/03/23 09:24:12;;;;;;;30.02;24.67;;;;;;;20.39;28.02;103188.81;4917957;28;20137;-73
2022/03/23 09:26:39;;;;;;;30.33;24.67;;;;;;;20.24;29.04;103181.75;4931516;28;20486;-73
2022/03/23 09:29:06;;;;;;;28.67;22.33;;;;;;;20.48;27.61;103184.75;4926854;28;20091;-73
2022/03/23 09:31:31;;;;;;;29.40;24.92;;;;;;;20.58;28.46;103184.28;4914951;28;20057;-73
2022/03/23 09:33:57;;;;;;;29.08;24.52;;;;;;;20.70;27.40;103175.09;4931949;28;20189;-73
2022/03/23 09:37:47;;;;;;;28.90;22.90;;;;;;;20.21;27.13;103175.88;4947864;28;20985;-73
2022/03/23 09:39:08;;;;;;;33.95;22.20;;;;;;;19.71;28.79;103173.03;4932905;28;20065;-73
2022/03/23 09:41:34;;;;;;;26.48;21.90;;;;;;;19.94;28.11;103184.28;4947976;28;20168;-74
2022/03/23 09:44:00;;;;;;;32.58;23.00;;;;;;;20.17;27.73;103177.38;4930568;28;20244;-74
2022/03/23 09:46:28;;;;;;;28.67;20.25;;;;;;;20.30;26.97;103179.22;4934210;28;20127;-74
2022/03/23 09:48:53;;;;;;;32.67;23.35;;;;;;;20.27;28.30;103184.06;4927978;28;20042;-74
2022/03/23 09:51:21;;;;;;;34.20;22.83;;;;;;;20.19;27.96;103178.84;4878971;28;20059;-74
2022/03/23 09:53:47;;;;;;;27.20;22.45;;;;;;;20.26;27.80;103168.69;4916048;28;20463;-74
2022/03/23 09:56:13;;;;;;;30.70;23.98;;;;;;;20.26;28.12;103176.06;4897862;28;20061;-74
2022/03/23 09:58:38;;;;;;;26.30;21.98;;;;;;;19.98;27.15;103166.34;4909239;28;20482;-74
2022/03/23 10:01:11;;;;;;;25.73;21.45;;;;;;;19.81;28.62;103169.81;4898246;28;20046;-74
2022/03/23 10:04:01;;;;;;;31.48;21.77;;;;;;;20.09;27.63;103170.28;4946026;28;20026;-75
2022/03/23 10:07:00;;;;;;;27.42;21.27;;;;;;;20.47;26.90;103172.13;4930001;28;20046;-75
2022/03/23 10:09:28;;;;;;;28.27;21.85;;;;;;;20.76;27.28;103167.06;4927710;28;20029;-75
2022/03/23 10:12:22;;;;;;;29.52;21.33;;;;;;;20.91;26.17;103170.28;4932601;28;20165;-75
2022/03/23 10:15:06;;;;;;;28.35;22.58;;;;;;;20.84;26.47;103169.50;4911904;28;20030;-75
2022/03/23 10:17:58;;;;;;;24.33;19.92;;;;;;;21.12;25.76;103166.28;4929059;28;20169;-75
2022/03/23 10:20:23;;;;;;;24.08;19.77;;;;;;;21.15;25.33;103160.34;4945100;28;20041;-75
2022/03/23 10:22:52;;;;;;;20.70;18.48;;;;;;;20.81;25.56;103159.00;4915059;28;20160;-75
2022/03/23 10:25:27;;;;;;;24.15;19.85;;;;;;;21.16;25.62;103162.84;4921670;28;20030;-75
2022/03/23 10:27:54;;;;;;;28.33;21.33;;;;;;;21.20;25.36;103158.59;4915622;28;20105;-75
2022/03/23 10:30:32;;;;;;;22.17;19.77;;;;;;;21.45;25.59;103154.97;4915804;28;20077;-75
2022/03/23 10:32:57;;;;;;;21.77;19.42;;;;;;;21.70;24.33;103154.03;4937200;28;20033;-75
2022/03/23 10:35:34;;;;;;;25.77;21.05;;;;;;;21.50;25.42;103149.63;4939547;28;25573;-75
2022/03/23 10:38:19;;;;;;;23.98;19.80;;;;;;;21.60;25.41;103158.13;4933435;28;20072;-75
2022/03/23 10:40:47;;;;;;;27.40;21.75;;;;;;;21.44;25.62;103147.78;4931067;28;21532;-75
2022/03/23 10:43:15;;;;;;;25.35;20.85;;;;;;;21.13;26.27;103146.88;4944617;28;20056;-74
2022/03/23 10:45:41;;;;;;;33.05;24.50;;;;;;;21.10;27.17;103144.59;4913766;28;20061;-75
2022/03/23 10:48:16;;;;;;;25.02;21.80;;;;;;;21.43;26.88;103140.63;4929362;28;20030;-75
2022/03/23 10:50:52;;;;;;;28.17;21.55;;;;;;;22.29;25.74;103144.94;4907708;28;20133;-75
2022/03/23 10:53:39;;;;;;;28.45;20.38;;;;;;;22.70;24.78;103142.34;4925918;28;20088;-74
2022/03/23 10:56:05;;;;;;;23.40;20.48;;;;;;;22.60;24.89;103138.28;4913055;28;21103;-74
2022/03/23 10:58:32;;;;;;;30.90;20.90;;;;;;;22.46;25.72;103139.56;4929883;28;20965;-75
2022/03/23 11:01:03;;;;;;;25.23;19.67;;;;;;;22.80;24.54;103129.66;4926877;28;20195;-74
2022/03/23 11:03:43;;;;;;;21.35;18.38;;;;;;;22.97;23.75;103132.56;4914255;28;20050;-74
2022/03/23 11:06:11;;;;;;;20.33;17.70;;;;;;;22.57;23.12;103130.53;4943747;28;20474;-74
2022/03/23 11:08:36;;;;;;;22.05;16.55;;;;;;;22.37;24.48;103130.03;4917489;28;20085;-74
2022/03/23 11:16:50;;;;;;;25.80;17.77;;;;;;;23.15;22.96;103130.72;4929894;28;20057;-74